Time;durP1;ratioP1;P1;durP2;ratioP2;P2;SDS_P1;SDS_P2;PMS_P1;PMS_P2;Temp;Humidity;BMP_temperature;BMP_pressure;BME280_temperature;BME280_humidity;BME280_pressure;Samples;Min_cycle;Max_cycle;Signal;HPM_P1;HPM_P2
2023/07/15 00:01:18;;;;;;;3.58;2.17;;;;;;;17.19;79.56;96781.91;5065596;28;20048;-46
2023/07/15 00:03:46;;;;;;;3.67;2.10;;;;;;;17.14;79.96;96785.59;5064499;28;20562;-48
2023/07/15 00:06:13;;;;;;;3.75;2.17;;;;;;;17.21;79.42;96783.22;5064429;28;20049;-46
2023/07/15 00:08:40;;;;;;;4.13;2.30;;;;;;;17.23;79.02;96777.44;5064577;28;20036;-46
2023/07/15 00:11:15;;;;;;;4.68;2.20;;;;;;;17.40;78.09;96782.25;5065941;28;20053;-46
2023/07/15 00:13:41;;;;;;;5.47;2.33;;;;;;;17.25;79.71;96778.75;5064027;28;20052;-44
2023/07/15 00:16:08;;;;;;;4.47;2.28;;;;;;;17.26;79.51;96774.09;5066772;28;20097;-44
2023/07/15 00:18:35;;;;;;;6.20;2.55;;;;;;;17.21;80.02;96775.00;5066401;28;20055;-45
2023/07/15 00:21:13;;;;;;;4.32;2.45;;;;;;;17.18;79.64;96775.66;5066346;28;20519;-44
2023/07/15 00:23:40;;;;;;;9.35;2.45;;;;;;;17.15;79.99;96777.06;5064763;28;20045;-46
2023/07/15 00:26:07;;;;;;;3.58;2.25;;;;;;;17.14;80.62;96766.44;5066608;28;20060;-45
2023/07/15 00:28:33;;;;;;;3.97;2.28;;;;;;;17.09;82.03;96772.03;5066346;28;20095;-46
2023/07/15 00:31:00;;;;;;;4.95;2.67;;;;;;;17.03;81.87;96777.59;5064450;28;20044;-45
2023/07/15 00:33:28;;;;;;;6.72;2.65;;;;;;;17.07;82.20;96777.81;5064841;28;20075;-45
2023/07/15 00:35:55;;;;;;;4.22;2.30;;;;;;;17.16;81.29;96772.41;5062961;28;20047;-46
2023/07/15 00:38:22;;;;;;;4.20;2.25;;;;;;;17.07;81.76;96777.00;5067506;28;20044;-46
2023/07/15 00:40:49;;;;;;;5.07;2.50;;;;;;;16.98;82.61;96776.88;5062897;28;20246;-44
2023/07/15 00:46:23;;;;;;;4.75;2.55;;;;;;;17.10;81.73;96776.41;5062584;28;20415;-45
2023/07/15 00:48:57;;;;;;;5.60;3.08;;;;;;;17.12;81.90;96777.69;5062764;28;20064;-44
2023/07/15 00:51:25;;;;;;;4.47;2.22;;;;;;;17.24;81.23;96782.59;5062583;28;21328;-44
2023/07/15 00:53:56;;;;;;;5.07;2.10;;;;;;;17.09;82.24;96785.69;5063277;28;20036;-45
2023/07/15 00:56:25;;;;;;;5.87;2.70;;;;;;;17.09;82.04;96786.50;5061882;28;20056;-46
2023/07/15 00:58:52;;;;;;;4.82;2.33;;;;;;;17.19;81.47;96785.47;5062626;28;20107;-46
2023/07/15 01:01:19;;;;;;;6.25;2.33;;;;;;;17.29;80.65;96778.97;5064693;28;20578;-45
2023/07/15 01:03:46;;;;;;;4.85;2.38;;;;;;;17.46;79.84;96785.69;5063401;28;20450;-45
2023/07/15 01:06:13;;;;;;;4.35;2.30;;;;;;;17.78;77.56;96781.03;5058615;28;20072;-44
2023/07/15 01:08:42;;;;;;;5.45;2.47;;;;;;;18.00;76.36;96776.63;5063340;28;20033;-44
2023/07/15 01:11:10;;;;;;;4.18;2.17;;;;;;;18.13;75.48;96780.41;5064733;28;20115;-48
2023/07/15 01:13:37;;;;;;;5.00;2.25;;;;;;;18.20;74.94;96776.09;5063262;28;20048;-50
2023/07/15 01:16:04;;;;;;;5.68;2.30;;;;;;;18.16;75.06;96780.59;5061810;28;20495;-50
2023/07/15 01:18:31;;;;;;;5.22;2.53;;;;;;;18.00;76.15;96776.63;5062675;28;20377;-46
2023/07/15 01:20:59;;;;;;;4.78;2.13;;;;;;;17.94;76.42;96774.03;5062250;28;20051;-47
2023/07/15 01:23:28;;;;;;;3.25;2.00;;;;;;;17.88;76.71;96771.75;5062313;28;20048;-45
2023/07/15 01:25:56;;;;;;;3.92;1.98;;;;;;;17.98;76.12;96774.19;5063437;28;20094;-44
2023/07/15 01:28:23;;;;;;;5.22;2.20;;;;;;;17.99;75.44;96781.28;5046717;28;20045;-46
2023/07/15 01:30:50;;;;;;;4.57;2.22;;;;;;;18.28;73.98;96785.47;5061139;28;20053;-50
2023/07/15 01:33:18;;;;;;;4.75;2.28;;;;;;;18.38;73.02;96780.81;5061244;28;20193;-51
2023/07/15 01:35:47;;;;;;;4.78;2.53;;;;;;;18.53;72.16;96780.38;5062865;28;20423;-46
2023/07/15 01:38:15;;;;;;;4.10;2.22;;;;;;;18.59;71.81;96781.84;5060421;28;20036;-47
2023/07/15 01:40:42;;;;;;;3.97;2.17;;;;;;;18.59;72.06;96781.84;5061866;28;20036;-48
2023/07/15 01:43:12;;;;;;;3.53;2.03;;;;;;;18.45;72.60;96776.50;5059692;28;20037;-48
2023/07/15 01:45:39;;;;;;;4.35;2.58;;;;;;;18.46;72.35;96777.28;5061803;28;20041;-49
2023/07/15 01:48:10;;;;;;;4.03;1.95;;;;;;;18.49;71.71;96782.13;5060723;28;20043;-50
2023/07/15 01:50:36;;;;;;;3.50;2.00;;;;;;;18.66;70.64;96780.56;5058790;28;20042;-49
2023/07/15 01:53:04;;;;;;;3.47;1.90;;;;;;;18.69;70.28;96768.97;5062244;28;20037;-49
2023/07/15 01:55:31;;;;;;;4.22;1.98;;;;;;;18.69;70.01;96768.97;5060926;28;20449;-49
2023/07/15 01:57:58;;;;;;;3.58;2.30;;;;;;;18.77;69.79;96767.34;5062771;28;20056;-46
2023/07/15 02:00:24;;;;;;;6.55;2.15;;;;;;;18.84;69.50;96765.75;5061106;28;20079;-49
2023/07/15 02:02:51;;;;;;;6.22;2.30;;;;;;;18.88;68.84;96768.66;5060433;28;20040;-50
2023/07/15 02:05:18;;;;;;;3.70;1.88;;;;;;;18.91;68.39;96756.25;5062384;28;20041;-47
2023/07/15 02:07:46;;;;;;;4.07;2.22;;;;;;;19.02;68.20;96764.97;5061331;28;20373;-45
2023/07/15 02:10:14;;;;;;;3.38;2.05;;;;;;;19.01;67.84;96755.91;5059909;28;20043;-49
2023/07/15 02:12:40;;;;;;;7.05;2.05;;;;;;;19.04;67.58;96758.00;5062296;28;20101;-49
2023/07/15 02:15:07;;;;;;;5.07;1.92;;;;;;;19.08;67.15;96759.00;5062255;28;20049;-50
2023/07/15 02:17:35;;;;;;;4.97;2.33;;;;;;;19.19;66.46;96756.75;5062424;28;20485;-50
2023/07/15 02:20:05;;;;;;;4.32;2.25;;;;;;;19.29;66.08;96754.81;5062526;28;20079;-47
2023/07/15 02:22:32;;;;;;;3.58;1.73;;;;;;;19.13;67.33;96758.06;5060870;28;20040;-49
2023/07/15 02:24:58;;;;;;;4.72;2.65;;;;;;;18.94;68.15;96750.13;5061962;28;20050;-48
2023/07/15 02:27:25;;;;;;;5.75;2.30;;;;;;;18.99;68.11;96755.44;5061494;28;20044;-49
2023/07/15 02:29:53;;;;;;;4.00;2.00;;;;;;;18.98;68.00;96751.88;5060677;28;20056;-45
2023/07/15 02:32:40;;;;;;;3.33;2.00;;;;;;;18.96;68.69;96745.09;5062423;28;20090;-44
2023/07/15 02:35:12;;;;;;;5.45;2.00;;;;;;;18.94;68.60;96744.63;5061394;28;20586;-49
2023/07/15 02:37:40;;;;;;;3.85;2.25;;;;;;;18.92;69.01;96749.63;5063686;28;20037;-48
2023/07/15 02:40:09;;;;;;;3.72;2.10;;;;;;;18.91;69.10;96756.25;5066413;28;20631;-50
2023/07/15 02:42:37;;;;;;;4.18;2.25;;;;;;;18.79;69.59;96741.22;5060071;28;20554;-48
2023/07/15 02:45:06;;;;;;;4.80;2.63;;;;;;;18.69;69.97;96747.03;5060443;28;20120;-49
2023/07/15 02:47:33;;;;;;;4.53;2.40;;;;;;;18.65;70.25;96746.84;5061273;28;20040;-47
2023/07/15 02:50:04;;;;;;;4.90;2.15;;;;;;;18.75;69.94;96748.47;5061393;28;20033;-52
2023/07/15 02:52:32;;;;;;;4.45;1.90;;;;;;;18.77;69.75;96748.97;5061469;28;20056;-49
2023/07/15 02:55:00;;;;;;;4.30;1.83;;;;;;;18.74;69.88;96738.63;5057975;28;20036;-48
2023/07/15 02:57:31;;;;;;;3.53;2.17;;;;;;;18.78;70.17;96749.75;5061002;28;20127;-47
2023/07/15 02:59:57;;;;;;;5.22;2.50;;;;;;;18.66;70.59;96740.25;5058165;28;20048;-50
2023/07/15 03:02:25;;;;;;;4.95;2.25;;;;;;;18.52;71.50;96745.88;5059878;28;20494;-46
2023/07/15 03:04:51;;;;;;;3.80;2.17;;;;;;;18.48;71.64;96742.16;5061125;28;20044;-51
2023/07/15 03:07:19;;;;;;;6.30;2.20;;;;;;;18.43;72.17;96742.31;5064908;28;20091;-52
2023/07/15 03:09:46;;;;;;;8.02;2.47;;;;;;;18.44;71.69;96741.19;5061054;28;20064;-50
2023/07/15 03:12:13;;;;;;;4.30;2.70;;;;;;;18.48;71.68;96744.91;5060814;28;20041;-50
2023/07/15 03:14:41;;;;;;;6.30;2.33;;;;;;;18.40;72.16;96749.25;5059355;28;20110;-50
2023/07/15 03:17:09;;;;;;;4.75;2.30;;;;;;;18.44;72.14;96738.44;5061936;28;20052;-46
2023/07/15 03:19:37;;;;;;;3.88;1.95;;;;;;;18.52;71.35;96747.78;5061787;28;20541;-48
2023/07/15 03:22:05;;;;;;;5.65;2.03;;;;;;;18.53;71.27;96735.69;5059411;28;20068;-47
2023/07/15 03:24:34;;;;;;;3.75;1.92;;;;;;;18.58;70.80;96739.09;5058246;28;20041;-46
2023/07/15 03:27:01;;;;;;;3.50;2.03;;;;;;;18.53;71.22;96741.19;5061177;28;20131;-47
2023/07/15 03:29:28;;;;;;;4.13;1.98;;;;;;;18.51;71.58;96749.75;5059629;28;20043;-46
2023/07/15 03:31:54;;;;;;;3.08;1.90;;;;;;;18.48;71.21;96739.41;5060699;28;20051;-45
2023/07/15 03:34:23;;;;;;;5.50;2.22;;;;;;;18.47;71.13;96740.53;5061417;28;20040;-47
2023/07/15 03:36:52;;;;;;;5.72;2.35;;;;;;;18.49;71.29;96746.50;5056907;28;20122;-47
2023/07/15 03:39:21;;;;;;;5.07;2.30;;;;;;;18.31;72.46;96742.91;5062112;28;20104;-45
2023/07/15 03:41:48;;;;;;;5.97;2.10;;;;;;;18.22;72.81;96737.41;5061910;28;20129;-49
2023/07/15 03:44:15;;;;;;;4.35;2.50;;;;;;;18.18;73.00;96733.69;5061640;28;20277;-50
2023/07/15 03:46:42;;;;;;;5.00;2.42;;;;;;;18.18;72.91;96739.97;5066219;28;20040;-47
2023/07/15 03:49:08;;;;;;;4.10;2.33;;;;;;;18.18;72.92;96737.22;5066824;28;20051;-49
2023/07/15 03:51:35;;;;;;;5.13;2.10;;;;;;;18.22;72.90;96729.19;5063835;28;20066;-49
2023/07/15 03:54:03;;;;;;;4.55;2.20;;;;;;;18.20;72.95;96729.50;5061896;28;20523;-50
2023/07/15 03:56:30;;;;;;;5.45;2.25;;;;;;;18.25;72.69;96731.31;5065603;28;20482;-48
2023/07/15 03:58:56;;;;;;;3.70;1.92;;;;;;;18.25;72.77;96725.84;5065101;28;20047;-50
2023/07/15 04:01:23;;;;;;;3.65;2.15;;;;;;;18.31;72.22;96724.53;5061521;28;20106;-51
2023/07/15 04:03:49;;;;;;;7.68;2.30;;;;;;;18.27;72.82;96723.56;5060589;28;20037;-49
2023/07/15 04:06:16;;;;;;;3.72;2.20;;;;;;;18.31;72.76;96724.53;5065628;28;20127;-47
2023/07/15 04:08:43;;;;;;;4.68;2.28;;;;;;;18.30;72.54;96722.94;5063557;28;20036;-48
2023/07/15 04:11:09;;;;;;;4.05;2.20;;;;;;;18.35;72.38;96724.69;5064162;28;20040;-46
2023/07/15 04:13:37;;;;;;;4.15;2.50;;;;;;;18.38;72.34;96715.84;5066177;28;20052;-49
2023/07/15 04:16:05;;;;;;;4.22;2.35;;;;;;;18.51;71.42;96708.63;5064448;28;20044;-49
2023/07/15 04:18:32;;;;;;;3.85;2.17;;;;;;;18.54;71.41;96710.72;5065494;28;20067;-47
2023/07/15 04:20:58;;;;;;;4.10;2.22;;;;;;;18.55;71.40;96712.34;5060158;28;20549;-47
2023/07/15 04:23:25;;;;;;;3.80;2.42;;;;;;;18.55;71.34;96708.78;5062262;28;20068;-47
2023/07/15 04:25:52;;;;;;;4.00;1.83;;;;;;;18.53;71.45;96708.28;5061321;28;20045;-47
2023/07/15 04:28:19;;;;;;;4.63;2.42;;;;;;;18.62;71.06;96703.63;5060919;28;20033;-47
2023/07/15 04:30:46;;;;;;;5.53;2.13;;;;;;;18.72;70.17;96706.06;5061649;28;20063;-48
2023/07/15 04:33:14;;;;;;;7.03;2.15;;;;;;;18.84;69.46;96707.34;5061826;28;20041;-49
2023/07/15 04:35:40;;;;;;;3.53;2.08;;;;;;;19.15;67.94;96709.13;5063075;28;20072;-47
2023/07/15 04:38:07;;;;;;;4.75;1.80;;;;;;;19.42;66.98;96706.34;5063294;28;20526;-47
2023/07/15 04:40:33;;;;;;;4.45;2.30;;;;;;;19.48;66.45;96703.09;5062447;28;20500;-44
2023/07/15 04:43:00;;;;;;;5.55;2.10;;;;;;;19.57;66.13;96705.03;5061974;28;20116;-46
2023/07/15 04:45:27;;;;;;;4.25;1.83;;;;;;;19.65;65.62;96703.38;5063515;28;20041;-49
2023/07/15 04:47:53;;;;;;;4.07;2.20;;;;;;;19.74;65.71;96706.88;5061894;28;20044;-49
2023/07/15 04:50:20;;;;;;;4.68;2.45;;;;;;;19.83;64.70;96712.38;5059733;28;20072;-48
2023/07/15 04:52:47;;;;;;;3.38;1.95;;;;;;;19.93;64.38;96716.69;5060261;28;20040;-48
2023/07/15 04:55:14;;;;;;;3.35;1.90;;;;;;;20.07;64.22;96716.47;5062026;28;20064;-49
2023/07/15 04:57:41;;;;;;;8.48;2.40;;;;;;;20.18;63.70;96720.47;5057520;28;20457;-51
2023/07/15 05:00:11;;;;;;;3.17;1.65;;;;;;;20.23;63.11;96725.78;5061623;28;20495;-51
2023/07/15 05:02:38;;;;;;;4.32;1.83;;;;;;;20.33;63.38;96718.28;5061027;28;20044;-48
2023/07/15 05:05:05;;;;;;;5.93;2.17;;;;;;;20.49;62.30;96707.53;5060760;28;20071;-45
2023/07/15 05:07:33;;;;;;;4.50;1.90;;;;;;;20.65;61.86;96725.03;5059678;28;20120;-46
2023/07/15 05:10:21;;;;;;;4.60;2.05;;;;;;;20.84;61.13;96728.47;5061137;28;20102;-51
2023/07/15 05:12:47;;;;;;;3.65;2.10;;;;;;;20.94;61.12;96727.28;5062673;28;20044;-60
2023/07/15 05:15:14;;;;;;;4.65;2.28;;;;;;;21.00;60.91;96734.19;5062845;28;20107;-59
2023/07/15 05:17:43;;;;;;;3.80;1.92;;;;;;;21.07;60.52;96734.47;5061392;28;20151;-60
2023/07/15 05:20:10;;;;;;;3.33;1.92;;;;;;;21.19;60.73;96736.44;5062402;28;20072;-60
2023/07/15 05:22:37;;;;;;;4.45;2.25;;;;;;;21.25;60.58;96737.88;5059732;28;20878;-60
2023/07/15 05:25:04;;;;;;;4.10;2.30;;;;;;;21.31;60.26;96735.72;5060563;28;20072;-60
2023/07/15 05:27:31;;;;;;;4.95;2.00;;;;;;;21.36;60.29;96732.75;5060382;28;20505;-60
2023/07/15 05:29:57;;;;;;;4.38;2.20;;;;;;;21.43;60.41;96741.28;5059438;28;20562;-58
2023/07/15 05:32:24;;;;;;;5.60;2.28;;;;;;;21.48;60.40;96739.44;5061217;28;20684;-60
2023/07/15 05:34:51;;;;;;;3.60;2.20;;;;;;;21.51;60.25;96739.56;5059581;28;21021;-60
2023/07/15 05:37:17;;;;;;;4.07;2.25;;;;;;;21.64;59.88;96734.09;5063061;28;20045;-60
2023/07/15 05:39:47;;;;;;;4.88;1.98;;;;;;;21.80;59.16;96739.78;5062331;28;20040;-60
2023/07/15 05:42:13;;;;;;;4.00;2.08;;;;;;;21.92;58.72;96750.81;5063144;28;20044;-60
2023/07/15 05:44:40;;;;;;;4.72;2.33;;;;;;;22.09;58.20;96747.06;5062533;28;20097;-59
2023/07/15 05:47:06;;;;;;;4.05;2.10;;;;;;;22.20;57.79;96741.91;5062861;28;20040;-58
2023/07/15 05:49:33;;;;;;;9.43;2.35;;;;;;;22.30;57.38;96739.81;5062939;28;20111;-60
2023/07/15 05:52:00;;;;;;;4.82;2.22;;;;;;;22.39;57.20;96739.69;5062294;28;20044;-60
2023/07/15 05:54:27;;;;;;;5.97;2.40;;;;;;;22.54;57.01;96740.94;5065507;28;20046;-60
2023/07/15 05:56:54;;;;;;;5.53;2.35;;;;;;;22.65;56.81;96735.78;5062945;28;20096;-60
2023/07/15 05:59:21;;;;;;;5.43;2.33;;;;;;;22.77;55.91;96735.75;5064291;28;20189;-60
2023/07/15 06:01:48;;;;;;;3.92;2.00;;;;;;;22.87;56.32;96734.47;5062515;28;20086;-60
2023/07/15 06:04:14;;;;;;;6.20;3.28;;;;;;;22.96;55.60;96728.81;5064190;28;20347;-61
2023/07/15 06:06:41;;;;;;;4.10;2.20;;;;;;;23.13;55.68;96713.91;5062192;28;20049;-60
2023/07/15 06:09:08;;;;;;;3.15;2.10;;;;;;;23.27;55.38;96708.00;5062233;28;20056;-59
2023/07/15 06:11:34;;;;;;;5.72;2.13;;;;;;;23.40;55.28;96706.00;5062693;28;20456;-60
2023/07/15 06:14:03;;;;;;;4.45;2.30;;;;;;;23.60;54.99;96706.13;5062292;28;20078;-60
2023/07/15 06:16:30;;;;;;;4.88;2.00;;;;;;;23.80;53.74;96706.25;5062758;28;20661;-60
2023/07/15 06:18:57;;;;;;;4.53;2.35;;;;;;;23.97;53.22;96691.25;5062486;28;20102;-59
2023/07/15 06:21:24;;;;;;;5.28;2.10;;;;;;;24.14;52.42;96696.44;5063138;28;20040;-59
2023/07/15 06:23:50;;;;;;;6.35;2.10;;;;;;;24.29;51.60;96696.78;5061890;28;20491;-60
2023/07/15 06:26:17;;;;;;;4.85;2.10;;;;;;;24.32;50.84;96684.97;5060094;28;20055;-60
2023/07/15 06:28:43;;;;;;;7.38;1.98;;;;;;;24.28;51.43;96692.41;5060290;28;20048;-61
2023/07/15 06:31:10;;;;;;;4.00;2.15;;;;;;;24.27;51.42;96690.78;5060202;28;20490;-60
2023/07/15 06:33:41;;;;;;;4.23;2.33;;;;;;;24.23;51.26;96696.25;5060700;28;20058;-60
2023/07/15 06:36:10;;;;;;;4.30;2.08;;;;;;;24.26;51.01;96691.97;5060047;28;20279;-60
2023/07/15 06:38:36;;;;;;;4.88;2.20;;;;;;;24.41;50.93;96688.38;5061664;28;20044;-60
2023/07/15 06:41:03;;;;;;;3.80;2.08;;;;;;;24.55;50.12;96695.38;5059417;28;20036;-60
2023/07/15 06:43:30;;;;;;;6.05;1.90;;;;;;;24.75;49.13;96687.09;5060189;28;20044;-61
2023/07/15 06:45:56;;;;;;;7.75;2.20;;;;;;;24.85;48.91;96694.06;5059009;28;20097;-57
2023/07/15 06:48:23;;;;;;;4.15;2.35;;;;;;;25.01;47.59;96682.91;5060718;28;20045;-58
2023/07/15 06:50:49;;;;;;;4.32;1.92;;;;;;;25.03;48.07;96686.91;5061310;28;20051;-59
2023/07/15 06:53:16;;;;;;;3.35;2.00;;;;;;;25.02;47.85;96688.09;5062929;28;20040;-60
2023/07/15 06:55:42;;;;;;;4.03;2.47;;;;;;;25.14;47.87;96692.66;5060205;28;20036;-59
2023/07/15 06:58:09;;;;;;;4.38;2.28;;;;;;;25.30;47.97;96694.56;5058489;28;20037;-60
2023/07/15 07:00:36;;;;;;;4.97;2.25;;;;;;;25.45;46.95;96690.91;5060643;28;20550;-60
2023/07/15 07:03:02;;;;;;;4.10;2.05;;;;;;;25.61;46.98;96697.53;5059717;28;20055;-60
2023/07/15 07:05:29;;;;;;;3.05;1.90;;;;;;;25.65;46.70;96696.41;5060467;28;20068;-61
2023/07/15 07:07:56;;;;;;;4.65;2.30;;;;;;;25.68;47.28;96700.41;5060162;28;20496;-61
2023/07/15 07:10:22;;;;;;;4.15;2.22;;;;;;;25.79;46.15;96692.31;5061119;28;20037;-60
2023/07/15 07:12:49;;;;;;;3.42;1.90;;;;;;;25.81;46.50;96701.84;5060977;28;20094;-60
2023/07/15 07:15:15;;;;;;;3.88;2.10;;;;;;;25.98;46.54;96697.78;5060546;28;20049;-60
2023/07/15 07:17:42;;;;;;;3.90;2.10;;;;;;;25.93;46.03;96709.19;5064005;28;20053;-60
2023/07/15 07:20:09;;;;;;;5.05;1.90;;;;;;;25.87;45.88;96710.63;5064705;28;20116;-60
2023/07/15 07:22:35;;;;;;;3.45;1.90;;;;;;;25.83;45.94;96712.56;5063265;28;20050;-60
2023/07/15 07:25:03;;;;;;;3.95;2.10;;;;;;;26.01;45.83;96712.06;5063855;28;20076;-61
2023/07/15 07:27:30;;;;;;;3.33;2.05;;;;;;;26.17;45.32;96711.94;5064457;28;20040;-61
2023/07/15 07:29:59;;;;;;;3.63;1.90;;;;;;;26.39;45.31;96718.66;5063494;28;20123;-62
2023/07/15 07:32:26;;;;;;;4.88;2.13;;;;;;;26.63;44.47;96711.06;5063748;28;20507;-60
2023/07/15 07:34:53;;;;;;;5.95;2.25;;;;;;;26.75;44.12;96708.03;5063139;28;20040;-60
2023/07/15 07:37:20;;;;;;;6.55;2.00;;;;;;;26.80;44.53;96706.13;5064802;28;20055;-59
2023/07/15 07:39:46;;;;;;;5.25;1.98;;;;;;;26.83;43.90;96699.81;5063817;28;20039;-61
2023/07/15 07:42:13;;;;;;;4.63;1.88;;;;;;;26.87;43.92;96704.22;5063561;28;20063;-60
2023/07/15 07:44:40;;;;;;;4.47;1.98;;;;;;;26.93;44.56;96709.47;5062991;28;20643;-58
2023/07/15 07:47:06;;;;;;;3.28;2.00;;;;;;;26.89;43.91;96706.63;5065255;28;20048;-58
2023/07/15 07:49:33;;;;;;;4.05;2.25;;;;;;;26.87;44.17;96709.78;5064651;28;20044;-59
2023/07/15 07:52:03;;;;;;;3.80;2.10;;;;;;;27.03;42.86;96708.84;5063115;28;20083;-60
2023/07/15 07:54:30;;;;;;;3.63;2.03;;;;;;;27.22;42.39;96713.41;5065525;28;20047;-60
2023/07/15 07:56:56;;;;;;;4.60;2.50;;;;;;;27.45;42.71;96706.91;5062582;28;20556;-58
2023/07/15 07:59:24;;;;;;;5.18;2.08;;;;;;;27.67;42.45;96707.16;5063961;28;20660;-60
2023/07/15 08:01:51;;;;;;;4.07;1.85;;;;;;;27.75;40.57;96708.84;5063168;28;20059;-60
2023/07/15 08:04:17;;;;;;;3.47;1.83;;;;;;;27.79;40.67;96712.44;5062018;28;20055;-60
2023/07/15 08:06:44;;;;;;;3.50;1.85;;;;;;;27.82;40.28;96710.88;5062171;28;20040;-60
2023/07/15 08:09:11;;;;;;;4.43;2.17;;;;;;;27.84;40.65;96708.53;5063218;28;20048;-60
2023/07/15 08:11:38;;;;;;;2.90;1.80;;;;;;;27.96;40.18;96712.22;5062481;28;20040;-59
2023/07/15 08:14:04;;;;;;;3.55;1.85;;;;;;;27.87;40.47;96706.97;5062959;28;20048;-59
2023/07/15 08:16:33;;;;;;;4.03;1.60;;;;;;;27.89;41.29;96704.59;5064605;28;20047;-59
2023/07/15 08:19:02;;;;;;;4.03;1.92;;;;;;;27.92;40.70;96717.72;5062606;28;20052;-60
2023/07/15 08:21:29;;;;;;;4.15;2.40;;;;;;;27.90;41.23;96722.88;5062808;28;21241;-60
2023/07/15 08:23:56;;;;;;;4.55;2.30;;;;;;;27.88;41.10;96717.72;5066046;28;20102;-60
2023/07/15 08:26:23;;;;;;;4.35;1.83;;;;;;;28.01;40.90;96711.84;5063526;28;20054;-60
2023/07/15 08:28:50;;;;;;;5.18;2.05;;;;;;;28.07;41.58;96720.66;5062311;28;20498;-59
2023/07/15 08:31:17;;;;;;;7.10;4.13;;;;;;;28.09;40.86;96716.28;5063253;28;20040;-60
2023/07/15 08:33:44;;;;;;;5.80;3.50;;;;;;;28.24;40.08;96722.78;5060892;28;20115;-59
2023/07/15 08:36:11;;;;;;;7.07;2.55;;;;;;;28.32;40.03;96723.66;5063943;28;20801;-58
2023/07/15 08:38:37;;;;;;;3.58;2.15;;;;;;;28.31;40.26;96730.41;5063377;28;20044;-60
2023/07/15 08:41:04;;;;;;;4.70;2.35;;;;;;;28.32;40.54;96726.44;5063858;28;20068;-59
2023/07/15 08:43:31;;;;;;;6.05;1.98;;;;;;;28.38;40.59;96732.44;5062597;28;20040;-60
2023/07/15 08:46:11;;;;;;;3.90;2.00;;;;;;;28.34;40.01;96729.63;5062270;28;20299;-59
2023/07/15 08:48:38;;;;;;;3.63;1.90;;;;;;;28.42;40.51;96728.47;5062164;28;20593;-61
2023/07/15 08:51:06;;;;;;;4.22;1.90;;;;;;;28.40;39.70;96727.28;5062216;28;20102;-59
2023/07/15 08:53:32;;;;;;;5.40;2.08;;;;;;;28.43;39.91;96726.50;5061826;28;20055;-60
2023/07/15 08:56:01;;;;;;;4.50;2.15;;;;;;;28.49;39.24;96724.16;5062903;28;20109;-60
2023/07/15 08:58:27;;;;;;;7.32;2.92;;;;;;;28.40;38.55;96716.94;5063116;28;20040;-57
2023/07/15 09:00:54;;;;;;;5.03;2.22;;;;;;;28.56;39.22;96715.88;5061862;28;20063;-59
2023/07/15 09:03:21;;;;;;;3.80;1.73;;;;;;;28.78;39.46;96713.22;5062678;28;20596;-58
2023/07/15 09:05:48;;;;;;;5.68;2.03;;;;;;;29.01;38.94;96712.16;5061973;28;20036;-60
2023/07/15 09:08:15;;;;;;;4.22;1.92;;;;;;;29.23;37.47;96712.22;5062364;28;20044;-58
2023/07/15 09:10:56;;;;;;;5.68;2.80;;;;;;;29.54;38.50;96713.53;5066054;28;20040;-60
2023/07/15 09:13:35;;;;;;;4.43;2.20;;;;;;;29.59;37.39;96713.16;5062811;28;20051;-60
2023/07/15 09:16:03;;;;;;;5.43;1.98;;;;;;;30.06;37.08;96714.38;5063478;28;20045;-60
2023/07/15 09:18:30;;;;;;;5.50;3.00;;;;;;;30.32;37.22;96704.03;5060182;28;20063;-60
2023/07/15 09:21:16;;;;;;;3.55;2.05;;;;;;;30.19;35.92;96712.03;5061547;28;20063;-59
2023/07/15 09:23:45;;;;;;;3.40;1.90;;;;;;;29.90;36.41;96706.41;5061919;28;20049;-59
2023/07/15 09:26:12;;;;;;;3.63;2.13;;;;;;;30.09;36.72;96705.22;5061587;28;20040;-60
2023/07/15 09:28:43;;;;;;;5.15;2.08;;;;;;;30.35;36.93;96706.84;5059140;28;20044;-60
2023/07/15 09:31:09;;;;;;;;;;;;;;;30.45;35.81;96704.44;5061232;28;20044;-60
2023/07/15 09:33:42;;;;;;;3.85;1.90;;;;;;;30.52;35.33;96706.41;5060950;28;20425;-60
2023/07/15 09:36:11;;;;;;;4.90;2.20;;;;;;;30.31;36.45;96714.44;5060758;28;20044;-59
2023/07/15 09:38:39;;;;;;;3.50;2.15;;;;;;;30.23;36.08;96710.84;5059934;28;20443;-60
2023/07/15 09:41:08;;;;;;;4.15;2.00;;;;;;;30.23;35.59;96707.25;5059553;28;20068;-59
2023/07/15 09:43:49;;;;;;;3.88;2.20;;;;;;;30.23;36.92;96698.88;5060571;28;20068;-59
2023/07/15 09:46:17;;;;;;;4.05;2.15;;;;;;;30.45;35.60;96698.84;5061710;28;20051;-60
2023/07/15 09:48:45;;;;;;;5.72;2.10;;;;;;;30.60;34.89;96697.63;5059826;28;20037;-60
2023/07/15 09:51:16;;;;;;;4.55;2.15;;;;;;;30.80;34.61;96691.59;5060633;28;20041;-60
2023/07/15 09:53:55;;;;;;;5.00;2.58;;;;;;;31.06;33.18;96691.53;5062690;28;20631;-60
2023/07/15 09:56:24;;;;;;;4.43;1.95;;;;;;;31.16;33.04;96682.28;5061577;28;20123;-60
2023/07/15 09:58:54;;;;;;;2.95;1.67;;;;;;;31.34;32.56;96687.81;5060360;28;20128;-59
2023/07/15 10:01:33;;;;;;;3.75;2.10;;;;;;;31.55;33.05;96688.91;5061478;28;20082;-59
2023/07/15 10:04:33;;;;;;;3.13;1.80;;;;;;;31.64;31.18;96680.03;5059086;28;20044;-60
2023/07/15 10:07:02;;;;;;;3.35;1.98;;;;;;;31.86;32.53;96672.28;5054570;28;20516;-59
2023/07/15 10:09:31;;;;;;;3.38;2.00;;;;;;;31.80;30.98;96683.13;5058443;28;20105;-55
2023/07/15 10:11:59;;;;;;;4.22;1.90;;;;;;;31.92;30.71;96683.88;5061029;28;20115;-60
2023/07/15 10:14:29;;;;;;;4.15;1.90;;;;;;;31.83;31.07;96678.69;5060506;28;20598;-60
2023/07/15 10:17:17;;;;;;;4.85;1.60;;;;;;;32.03;31.47;96681.00;5060301;28;20044;-60
2023/07/15 10:19:46;;;;;;;3.40;1.80;;;;;;;31.80;31.55;96683.13;5059318;28;20037;-60
2023/07/15 10:22:15;;;;;;;4.30;1.90;;;;;;;31.84;30.21;96687.91;5059102;28;20048;-61
2023/07/15 10:24:46;;;;;;;3.70;1.90;;;;;;;31.93;29.29;96682.66;5059192;28;20040;-61
2023/07/15 10:27:13;;;;;;;3.05;1.65;;;;;;;32.09;29.95;96676.53;5057215;28;20040;-58
2023/07/15 10:29:40;;;;;;;3.80;1.83;;;;;;;32.18;29.79;96681.66;5059938;28;20049;-60
2023/07/15 10:32:09;;;;;;;3.92;1.92;;;;;;;32.33;29.73;96675.91;5058810;28;20123;-60
2023/07/15 10:34:49;;;;;;;3.55;1.75;;;;;;;32.17;29.79;96674.47;5060339;28;20124;-59
2023/07/15 10:37:18;;;;;;;4.28;1.73;;;;;;;32.09;29.81;96665.31;5059793;28;20040;-59
2023/07/15 10:39:47;;;;;;;5.05;1.60;;;;;;;31.96;29.01;96667.84;5060624;28;20052;-59
2023/07/15 10:42:16;;;;;;;4.50;1.90;;;;;;;32.16;29.39;96673.66;5059910;28;20063;-60
2023/07/15 10:44:53;;;;;;;3.80;1.77;;;;;;;32.15;29.55;96671.28;5060583;28;20530;-60
2023/07/15 10:47:20;;;;;;;6.78;2.00;;;;;;;31.94;29.58;96666.69;5062259;28;20047;-60
2023/07/15 10:49:48;;;;;;;3.58;2.00;;;;;;;31.95;28.90;96669.06;5060253;28;20439;-58
2023/07/15 10:52:19;;;;;;;3.63;1.75;;;;;;;31.66;33.10;96683.25;5064618;28;20037;-61
2023/07/15 10:54:46;;;;;;;5.53;1.98;;;;;;;31.29;35.29;96691.03;5063176;28;20465;-58
2023/07/15 10:57:15;;;;;;;5.63;2.50;;;;;;;31.06;36.18;96688.72;5065864;28;20418;-59
2023/07/15 10:59:44;;;;;;;7.43;2.53;;;;;;;30.88;36.88;96690.38;5064159;28;20060;-60
2023/07/15 11:02:11;;;;;;;4.47;2.15;;;;;;;31.18;38.03;96691.06;5063176;28;20416;-60
2023/07/15 11:04:39;;;;;;;3.22;1.85;;;;;;;31.44;37.84;96700.16;5063610;28;20650;-58
2023/07/15 11:07:11;;;;;;;4.68;2.00;;;;;;;31.54;37.03;96701.28;5063736;28;20072;-60
2023/07/15 11:09:39;;;;;;;4.68;2.38;;;;;;;31.45;36.49;96698.13;5063650;28;20572;-60
2023/07/15 11:12:07;;;;;;;5.10;2.35;;;;;;;31.15;37.04;96691.88;5063914;28;20550;-59
2023/07/15 11:14:42;;;;;;;4.65;2.00;;;;;;;31.10;36.98;96689.50;5062584;28;20039;-58
2023/07/15 11:17:09;;;;;;;9.20;2.42;;;;;;;31.06;36.84;96678.34;5063155;28;20044;-58
2023/07/15 11:19:36;;;;;;;4.70;2.20;;;;;;;31.17;36.54;96672.69;5064110;28;20045;-56
2023/07/15 11:22:07;;;;;;;4.10;1.98;;;;;;;31.52;35.56;96670.13;5068453;28;20053;-56
2023/07/15 11:24:35;;;;;;;3.38;2.20;;;;;;;31.65;35.05;96662.84;5062865;28;20492;-57
2023/07/15 11:27:01;;;;;;;4.72;2.35;;;;;;;31.34;35.29;96667.44;5068683;28;20050;-57
2023/07/15 11:29:28;;;;;;;4.32;2.22;;;;;;;31.53;35.12;96672.53;5070673;28;20045;-58
2023/07/15 11:31:57;;;;;;;3.88;1.88;;;;;;;31.27;34.21;96671.84;5070796;28;20048;-57
2023/07/15 11:34:25;;;;;;;5.85;2.17;;;;;;;31.66;33.81;96666.44;5067821;28;20668;-56
2023/07/15 11:36:54;;;;;;;6.20;2.00;;;;;;;31.22;34.74;96671.47;5063178;28;20049;-60
2023/07/15 11:39:21;;;;;;;4.50;2.03;;;;;;;30.70;34.99;96672.88;5067834;28;20044;-57
2023/07/15 11:41:51;;;;;;;9.77;2.60;;;;;;;30.55;36.08;96666.53;5070317;28;20110;-58